Terminal Aerodrome Forecast
Issued by NWS

Home | Current Version | Previous Version | Text Only | Print | Product List | Glossary On
Versions: 1 2 3 4 5 6 7 8 9 10 11 12 13 14 15 16 17 18 19 20
000
FTAK31 PAJN 171019 AAB
TAFAYA
TAF AMD
PAYA 171019Z 1710/1806 VRB05KT P6SM -SHRA VCTS SCT006 BKN015
      OVC035CB
      TEMPO 1710/1714 2SM TSRA BKN006 OVC015CB
     FM171500 12006KT 6SM -SHRA VCTS SCT015 OVC025CB
     FM171900 11005KT P6SM -SHRA VCTS SCT025 OVC040CB
     FM172200 12005KT 6SM -SHRA BR BKN025 OVC040
     FM180300 VRB03KT P6SM -SHRA SCT025 OVC050
      AMD LTD TO CLD VIS AND WIND=

USA.gov is the U.S. government's official web portal to all federal, state and local government web resources and services.